Time;durP1;ratioP1;P1;durP2;ratioP2;P2;SDS_P1;SDS_P2;PMS_P1;PMS_P2;Temp;Humidity;BMP_temperature;BMP_pressure;BME280_temperature;BME280_humidity;BME280_pressure;Samples;Min_cycle;Max_cycle;Signal;HPM_P1;HPM_P2
2024/01/26 00:01:24;;;;;;;72.53;34.95;;;9.00;99.90;;;;;;5032104;28;20040;-84
2024/01/26 00:03:51;;;;;;;70.93;34.58;;;9.00;99.90;;;;;;5067713;28;20070;-85
2024/01/26 00:06:17;;;;;;;74.72;35.13;;;9.00;99.90;;;;;;5022233;28;20451;-85
2024/01/26 00:08:43;;;;;;;75.38;35.47;;;9.00;99.90;;;;;;5032804;28;20047;-84
2024/01/26 00:11:15;;;;;;;76.28;35.50;;;9.00;99.90;;;;;;5032357;28;20041;-85
2024/01/26 00:13:41;;;;;;;74.35;35.83;;;9.10;99.90;;;;;;5051100;28;20124;-85
2024/01/26 00:16:07;;;;;;;72.65;35.58;;;9.10;99.90;;;;;;5033396;28;20119;-85
2024/01/26 00:18:33;;;;;;;71.25;35.40;;;9.10;99.90;;;;;;5034811;28;20373;-83
2024/01/26 00:20:59;;;;;;;67.47;34.90;;;9.10;99.90;;;;;;5035663;28;20064;-85
2024/01/26 00:23:24;;;;;;;66.35;36.60;;;9.20;99.90;;;;;;5048978;28;20076;-85
2024/01/26 00:25:50;;;;;;;72.50;37.63;;;9.20;99.90;;;;;;5065004;28;20080;-85
2024/01/26 00:28:16;;;;;;;75.43;36.80;;;9.20;99.90;;;;;;5033872;28;20128;-85
2024/01/26 00:30:41;;;;;;;73.55;35.58;;;9.30;99.90;;;;;;5068323;28;20123;-85
2024/01/26 00:33:07;;;;;;;63.92;36.13;;;9.30;99.90;;;;;;5051045;28;20462;-85
2024/01/26 00:35:32;;;;;;;63.97;33.95;;;9.40;99.90;;;;;;5033671;28;20032;-84
2024/01/26 00:37:58;;;;;;;58.80;34.30;;;9.40;99.90;;;;;;5052249;28;20033;-85
2024/01/26 00:40:24;;;;;;;60.80;32.47;;;9.40;99.90;;;;;;5051960;28;20040;-86
2024/01/26 00:42:49;;;;;;;59.72;34.08;;;9.40;99.90;;;;;;5035101;28;20086;-84
2024/01/26 00:45:15;;;;;;;56.60;33.67;;;9.50;99.90;;;;;;5031191;28;20036;-85
2024/01/26 00:47:41;;;;;;;60.72;33.53;;;9.50;99.90;;;;;;5049809;28;20566;-85
2024/01/26 00:50:06;;;;;;;54.63;33.63;;;9.50;99.90;;;;;;5046955;28;20124;-85
2024/01/26 00:52:32;;;;;;;56.45;34.05;;;9.50;99.90;;;;;;5035282;28;20032;-85
2024/01/26 00:54:59;;;;;;;52.92;33.53;;;9.50;99.90;;;;;;5047170;28;20090;-85
2024/01/26 00:57:24;;;;;;;53.72;33.88;;;9.50;99.90;;;;;;5058049;28;20128;-85
2024/01/26 00:59:50;;;;;;;52.25;32.60;;;9.50;99.90;;;;;;5045207;28;20131;-84
2024/01/26 01:02:15;;;;;;;62.38;34.88;;;9.50;99.90;;;;;;5052361;28;20040;-84
2024/01/26 01:04:41;;;;;;;60.20;35.40;;;9.60;99.90;;;;;;5052649;28;20040;-84
2024/01/26 01:07:07;;;;;;;63.13;35.38;;;9.50;99.90;;;;;;5033213;28;20106;-83
2024/01/26 01:09:34;;;;;;;58.28;34.33;;;9.60;99.90;;;;;;5034100;28;20028;-85
2024/01/26 01:12:00;;;;;;;50.97;31.33;;;9.60;99.90;;;;;;5035472;28;20508;-84
2024/01/26 01:14:28;;;;;;;44.50;29.00;;;9.60;99.90;;;;;;5052239;28;20119;-85
2024/01/26 01:16:56;;;;;;;45.58;29.88;;;9.60;99.90;;;;;;5027840;28;20037;-85
2024/01/26 01:19:22;;;;;;;46.95;31.13;;;9.60;99.90;;;;;;5047497;28;20045;-85
2024/01/26 01:21:48;;;;;;;46.72;30.92;;;9.60;99.90;;;;;;5044641;28;20045;-85
2024/01/26 01:24:13;;;;;;;42.03;30.33;;;9.60;99.90;;;;;;5027748;28;20046;-85
2024/01/26 01:26:39;;;;;;;36.67;28.23;;;9.60;99.90;;;;;;5048793;28;20037;-84
2024/01/26 01:29:06;;;;;;;36.58;27.48;;;9.70;99.90;;;;;;5039917;28;20579;-85
2024/01/26 01:31:32;;;;;;;35.22;25.90;;;9.70;99.90;;;;;;5051562;28;20508;-84
2024/01/26 01:33:57;;;;;;;36.88;27.98;;;9.70;99.90;;;;;;5035037;28;20067;-85
2024/01/26 01:36:23;;;;;;;37.50;26.92;;;9.70;99.90;;;;;;5051005;28;20032;-84
2024/01/26 01:38:49;;;;;;;35.05;27.08;;;9.70;99.90;;;;;;5050030;28;20079;-84
2024/01/26 01:41:14;;;;;;;37.42;28.60;;;9.70;99.90;;;;;;5034623;28;20089;-83
2024/01/26 01:43:40;;;;;;;34.45;27.10;;;9.70;99.90;;;;;;5064512;28;20041;-84
2024/01/26 01:46:06;;;;;;;38.78;29.10;;;9.70;99.90;;;;;;5032833;28;20546;-84
2024/01/26 01:48:32;;;;;;;34.67;27.70;;;9.70;99.90;;;;;;5030172;28;20079;-84
2024/01/26 01:50:58;;;;;;;37.50;28.50;;;9.70;99.90;;;;;;5032119;28;20072;-84
2024/01/26 01:53:24;;;;;;;37.33;27.67;;;9.80;99.90;;;;;;5051295;28;20040;-84
2024/01/26 01:55:51;;;;;;;37.60;28.35;;;9.70;99.90;;;;;;5049977;28;20043;-84
2024/01/26 01:58:18;;;;;;;32.28;26.30;;;9.80;99.90;;;;;;5033182;28;20036;-84
2024/01/26 02:00:46;;;;;;;36.60;28.00;;;9.80;99.90;;;;;;5048216;28;20040;-85
2024/01/26 02:03:12;;;;;;;34.00;27.90;;;9.80;99.90;;;;;;5028237;28;20044;-85
2024/01/26 02:05:37;;;;;;;32.50;28.65;;;9.80;99.90;;;;;;5050997;28;20490;-84
2024/01/26 02:08:03;;;;;;;32.30;27.77;;;9.80;99.90;;;;;;5034700;28;20480;-85
2024/01/26 02:10:29;;;;;;;33.92;27.98;;;9.80;99.90;;;;;;5033497;28;20044;-84
2024/01/26 02:12:55;;;;;;;32.40;27.67;;;9.90;99.90;;;;;;5046659;28;20034;-84
2024/01/26 02:15:21;;;;;;;33.97;27.63;;;9.90;99.90;;;;;;5046168;28;20047;-84
2024/01/26 02:17:46;;;;;;;34.38;28.70;;;9.90;99.90;;;;;;5033498;28;20037;-84
2024/01/26 02:20:12;;;;;;;36.65;27.77;;;9.80;99.90;;;;;;5062975;28;20493;-84
2024/01/26 02:22:38;;;;;;;33.90;28.65;;;9.90;99.90;;;;;;5024992;28;20044;-85
2024/01/26 02:25:11;;;;;;;31.70;27.77;;;9.90;99.90;;;;;;5039029;28;20036;-84
2024/01/26 02:27:36;;;;;;;31.23;27.48;;;9.90;99.90;;;;;;5050815;28;20132;-84
2024/01/26 02:30:03;;;;;;;34.63;28.20;;;9.90;99.90;;;;;;5048482;28;20128;-85
2024/01/26 02:32:28;;;;;;;35.92;29.80;;;9.90;99.90;;;;;;5028155;28;20040;-83
2024/01/26 02:34:54;;;;;;;32.60;29.17;;;9.90;99.90;;;;;;5033120;28;20032;-84
2024/01/26 02:37:20;;;;;;;36.15;29.33;;;9.90;99.90;;;;;;5050262;28;20068;-83
2024/01/26 02:39:45;;;;;;;32.75;28.05;;;9.90;99.90;;;;;;5066956;28;20116;-84
2024/01/26 02:42:11;;;;;;;32.25;28.20;;;9.90;99.90;;;;;;5044721;28;20044;-83
2024/01/26 02:44:36;;;;;;;34.10;28.67;;;9.90;99.90;;;;;;5030895;28;20489;-85
2024/01/26 02:47:02;;;;;;;36.10;29.92;;;9.90;99.90;;;;;;5033529;28;20105;-84
2024/01/26 02:49:29;;;;;;;34.42;29.15;;;9.90;99.90;;;;;;5033900;28;20040;-84
2024/01/26 02:51:55;;;;;;;32.60;28.20;;;9.90;99.90;;;;;;5066234;28;20611;-83
2024/01/26 02:54:20;;;;;;;32.83;28.83;;;9.90;99.90;;;;;;5032692;28;20033;-82
2024/01/26 02:56:46;;;;;;;33.70;28.70;;;9.90;99.90;;;;;;5032048;28;20036;-84
2024/01/26 02:59:11;;;;;;;34.83;28.73;;;9.90;99.90;;;;;;5030575;28;20075;-84
2024/01/26 03:01:37;;;;;;;32.63;27.45;;;9.90;99.90;;;;;;5049826;28;20079;-84
2024/01/26 03:04:03;;;;;;;35.28;29.80;;;9.90;99.90;;;;;;5050163;28;20040;-83
2024/01/26 03:06:28;;;;;;;34.08;29.63;;;9.90;99.90;;;;;;5032931;28;20431;-84
2024/01/26 03:08:54;;;;;;;34.17;28.67;;;9.90;99.90;;;;;;5032162;28;20519;-84
2024/01/26 03:11:19;;;;;;;36.28;29.52;;;10.00;99.90;;;;;;5049762;28;20068;-83
2024/01/26 03:13:45;;;;;;;35.35;28.17;;;9.90;99.90;;;;;;5041928;28;20106;-84
2024/01/26 03:16:11;;;;;;;37.08;28.40;;;9.90;99.90;;;;;;5048488;28;20040;-85
2024/01/26 03:18:36;;;;;;;35.53;29.67;;;10.00;99.90;;;;;;5050126;28;20093;-84
2024/01/26 03:21:02;;;;;;;35.65;29.13;;;10.00;99.90;;;;;;5049724;28;20051;-84
2024/01/26 03:23:28;;;;;;;36.00;28.75;;;9.90;99.90;;;;;;5049460;28;20109;-84
2024/01/26 03:25:53;;;;;;;36.20;28.73;;;10.00;99.90;;;;;;5043474;28;20049;-84
2024/01/26 03:28:19;;;;;;;34.85;28.10;;;10.00;99.90;;;;;;5046391;28;20064;-84
2024/01/26 03:30:45;;;;;;;36.65;28.80;;;10.00;99.90;;;;;;5047659;28;20135;-84
2024/01/26 03:33:10;;;;;;;33.00;27.35;;;10.00;99.90;;;;;;5049184;28;20036;-83
2024/01/26 03:35:36;;;;;;;33.08;26.92;;;10.00;99.90;;;;;;5046607;28;20037;-85
2024/01/26 03:38:03;;;;;;;34.47;28.13;;;10.00;99.90;;;;;;5047943;28;20041;-84
2024/01/26 03:40:29;;;;;;;35.45;28.70;;;10.00;99.90;;;;;;5049454;28;20070;-84
2024/01/26 03:42:54;;;;;;;34.90;27.23;;;10.00;99.90;;;;;;5033063;28;20044;-85
2024/01/26 03:45:20;;;;;;;32.78;25.90;;;10.00;99.90;;;;;;5045974;28;20094;-84
2024/01/26 03:47:46;;;;;;;35.55;27.40;;;10.10;99.90;;;;;;5068854;28;20529;-84
2024/01/26 03:50:12;;;;;;;36.30;28.05;;;10.10;99.90;;;;;;5037355;28;20052;-84
2024/01/26 03:52:37;;;;;;;33.38;27.40;;;10.00;99.90;;;;;;5051359;28;20044;-83
2024/01/26 03:55:06;;;;;;;32.95;27.45;;;10.10;99.90;;;;;;5053562;28;20512;-85
2024/01/26 03:57:33;;;;;;;38.78;28.33;;;10.00;99.90;;;;;;5053954;28;20539;-85
2024/01/26 03:59:59;;;;;;;36.70;26.95;;;10.10;99.90;;;;;;5036990;28;20042;-84
2024/01/26 04:02:25;;;;;;;30.65;26.70;;;10.00;99.90;;;;;;5052161;28;20518;-84
2024/01/26 04:04:51;;;;;;;36.10;27.13;;;10.10;99.90;;;;;;5030644;28;20041;-85
2024/01/26 04:07:17;;;;;;;35.25;26.98;;;10.10;99.90;;;;;;5028545;28;20082;-85
2024/01/26 04:09:42;;;;;;;32.65;26.60;;;10.10;99.90;;;;;;5065056;28;20041;-84
2024/01/26 04:12:08;;;;;;;33.72;25.83;;;10.10;99.90;;;;;;5036644;28;20392;-84
2024/01/26 04:14:33;;;;;;;31.73;25.90;;;10.10;99.90;;;;;;5048246;28;20047;-85
2024/01/26 04:16:59;;;;;;;35.20;26.60;;;10.10;99.90;;;;;;5048719;28;20040;-84
2024/01/26 04:19:25;;;;;;;33.63;26.58;;;10.10;99.90;;;;;;5052919;28;20056;-85
2024/01/26 04:21:51;;;;;;;33.78;26.30;;;10.20;99.90;;;;;;5053205;28;20400;-83
2024/01/26 04:24:17;;;;;;;32.05;26.80;;;10.20;99.90;;;;;;5070189;28;20047;-84
2024/01/26 04:26:43;;;;;;;36.13;28.70;;;10.20;99.90;;;;;;5040980;28;20079;-82
2024/01/26 04:29:09;;;;;;;39.20;27.30;;;10.20;99.90;;;;;;5052552;28;20068;-83
2024/01/26 04:31:41;;;;;;;30.58;26.23;;;10.20;99.90;;;;;;5036365;28;20056;-84
2024/01/26 04:34:07;;;;;;;33.60;27.13;;;10.20;99.90;;;;;;5035201;28;20116;-83
2024/01/26 04:36:32;;;;;;;31.90;25.30;;;10.20;99.90;;;;;;5044670;28;20115;-83
2024/01/26 04:38:59;;;;;;;37.78;29.17;;;10.30;99.90;;;;;;5049075;28;20038;-83
2024/01/26 04:41:25;;;;;;;32.20;25.95;;;10.30;99.90;;;;;;5035476;28;20041;-84
2024/01/26 04:43:55;;;;;;;31.90;26.42;;;10.30;99.90;;;;;;5052638;28;20433;-83
2024/01/26 04:46:20;;;;;;;33.67;27.42;;;10.30;99.90;;;;;;5059689;28;20107;-84
2024/01/26 04:48:46;;;;;;;33.03;26.83;;;10.30;99.90;;;;;;5035399;28;20564;-84
2024/01/26 04:51:12;;;;;;;30.60;26.08;;;10.40;99.90;;;;;;5051989;28;20048;-83
2024/01/26 04:53:37;;;;;;;32.53;26.75;;;10.40;99.90;;;;;;5052732;28;20111;-85
2024/01/26 04:56:03;;;;;;;32.83;26.75;;;10.40;99.90;;;;;;5049964;28;20390;-84
2024/01/26 04:58:29;;;;;;;32.22;26.05;;;10.40;99.90;;;;;;5033781;28;20429;-84
2024/01/26 05:00:54;;;;;;;29.00;24.75;;;10.50;99.90;;;;;;5069786;28;20052;-85
2024/01/26 05:03:20;;;;;;;29.08;25.88;;;10.50;99.90;;;;;;5035445;28;20554;-85
2024/01/26 05:05:46;;;;;;;28.55;23.92;;;10.50;99.90;;;;;;5035067;28;20050;-84
2024/01/26 05:08:11;;;;;;;30.25;24.25;;;10.50;99.90;;;;;;5042439;28;20063;-83
2024/01/26 05:10:37;;;;;;;29.17;24.80;;;10.60;99.90;;;;;;5051352;28;20408;-84
2024/01/26 05:13:03;;;;;;;30.67;25.13;;;10.60;99.90;;;;;;5051371;28;20302;-83
2024/01/26 05:15:28;;;;;;;27.38;24.50;;;10.70;99.90;;;;;;5035869;28;20071;-84
2024/01/26 05:17:54;;;;;;;31.25;28.15;;;10.70;99.90;;;;;;5035079;28;20037;-84
2024/01/26 05:20:20;;;;;;;26.20;23.42;;;10.70;99.90;;;;;;5048687;28;20098;-84
2024/01/26 05:22:46;;;;;;;28.98;25.35;;;10.70;99.90;;;;;;5050792;28;20052;-85
2024/01/26 05:25:11;;;;;;;29.55;26.42;;;10.70;99.90;;;;;;5051056;28;20408;-83
2024/01/26 05:27:38;;;;;;;32.03;25.40;;;10.70;99.90;;;;;;5051774;28;20076;-84
2024/01/26 05:30:04;;;;;;;26.80;23.90;;;10.70;99.90;;;;;;5033117;28;20094;-84
2024/01/26 05:32:30;;;;;;;30.10;24.90;;;10.80;99.90;;;;;;5035126;28;20090;-83
2024/01/26 05:34:55;;;;;;;27.88;24.75;;;10.70;99.90;;;;;;5051935;28;20447;-85
2024/01/26 05:37:21;;;;;;;28.27;24.75;;;10.70;99.90;;;;;;5034124;28;20029;-84
2024/01/26 05:39:46;;;;;;;28.42;25.42;;;10.70;99.90;;;;;;5032110;28;20040;-86
2024/01/26 05:42:12;;;;;;;28.10;25.17;;;10.70;99.90;;;;;;5051872;28;20036;-86
2024/01/26 05:44:38;;;;;;;27.45;24.40;;;10.60;99.90;;;;;;5052064;28;20051;-85
2024/01/26 05:47:04;;;;;;;28.33;25.20;;;10.70;99.90;;;;;;5069544;28;20036;-85
2024/01/26 05:49:29;;;;;;;31.35;27.15;;;10.70;99.90;;;;;;5048036;28;20638;-83
2024/01/26 05:51:55;;;;;;;32.78;26.67;;;10.70;99.90;;;;;;5067927;28;20458;-85
2024/01/26 05:54:20;;;;;;;29.92;26.70;;;10.70;99.90;;;;;;5034165;28;20036;-85
2024/01/26 05:56:46;;;;;;;30.13;27.02;;;10.70;99.90;;;;;;5051387;28;20094;-84
2024/01/26 05:59:12;;;;;;;32.08;27.23;;;10.70;99.90;;;;;;5047265;28;20040;-84
2024/01/26 06:01:37;;;;;;;29.05;25.80;;;10.70;99.90;;;;;;5049008;28;20063;-84
2024/01/26 06:04:05;;;;;;;31.33;27.45;;;10.70;99.90;;;;;;5028446;28;20483;-85
2024/01/26 06:06:30;;;;;;;120.38;44.80;;;10.70;99.90;;;;;;5050442;28;20068;-85
2024/01/26 06:08:56;;;;;;;28.42;25.27;;;10.70;99.90;;;;;;5034934;28;20074;-85
2024/01/26 06:11:23;;;;;;;28.92;26.00;;;10.70;99.90;;;;;;5048524;28;20053;-85
2024/01/26 06:13:49;;;;;;;30.70;26.27;;;10.80;99.90;;;;;;5031095;28;20409;-84
2024/01/26 06:16:15;;;;;;;29.52;26.13;;;10.80;99.90;;;;;;5032071;28;20045;-84
2024/01/26 06:18:43;;;;;;;30.45;26.83;;;10.80;99.90;;;;;;5031084;28;20032;-84
2024/01/26 06:21:10;;;;;;;29.58;26.40;;;10.80;99.90;;;;;;5041240;28;20070;-84
2024/01/26 06:23:35;;;;;;;29.75;26.23;;;10.80;99.90;;;;;;5028242;28;20496;-84
2024/01/26 06:26:01;;;;;;;32.60;28.25;;;10.80;99.90;;;;;;5040176;28;20043;-84
2024/01/26 06:28:27;;;;;;;29.83;26.73;;;10.90;99.90;;;;;;5049668;28;20044;-84
2024/01/26 06:30:53;;;;;;;1999.90;999.90;;;10.90;99.90;;;;;;5050298;28;20079;-85
2024/01/26 06:33:18;;;;;;;1999.90;999.90;;;10.90;99.90;;;;;;5049229;28;20033;-84
2024/01/26 06:35:44;;;;;;;1999.90;999.90;;;10.90;99.90;;;;;;5063518;28;20086;-86
2024/01/26 06:38:10;;;;;;;1999.90;999.90;;;10.90;99.90;;;;;;5046606;28;20029;-85
2024/01/26 06:40:35;;;;;;;1999.90;999.90;;;10.90;99.90;;;;;;5048058;28;20389;-85
2024/01/26 06:43:05;;;;;;;1999.90;999.90;;;11.00;99.90;;;;;;5026374;28;20127;-84
2024/01/26 06:45:31;;;;;;;1999.90;999.90;;;11.00;99.90;;;;;;5033021;28;20154;-85
2024/01/26 06:47:57;;;;;;;1999.90;999.90;;;11.00;99.90;;;;;;5047605;28;20608;-84
2024/01/26 06:50:22;;;;;;;1999.90;999.90;;;11.00;99.90;;;;;;5025314;28;20127;-86
2024/01/26 06:52:48;;;;;;;1999.90;999.90;;;10.90;99.90;;;;;;5066269;28;20107;-86
2024/01/26 06:55:14;;;;;;;1999.90;999.90;;;10.90;99.90;;;;;;5050829;28;20048;-85
2024/01/26 06:57:39;;;;;;;1999.90;999.90;;;10.90;99.90;;;;;;5033030;28;20052;-84
2024/01/26 07:00:07;;;;;;;1999.90;999.90;;;10.90;99.90;;;;;;5032214;28;20480;-83
2024/01/26 07:02:33;;;;;;;1999.90;999.90;;;10.90;99.90;;;;;;5043491;28;20036;-84
2024/01/26 07:04:59;;;;;;;1999.90;999.90;;;10.90;99.90;;;;;;5018836;28;20036;-85
2024/01/26 07:07:25;;;;;;;26.70;23.83;;;10.90;99.90;;;;;;5017982;28;20044;-85
2024/01/26 07:09:50;;;;;;;26.92;24.23;;;10.90;99.90;;;;;;5039788;28;20488;-84
2024/01/26 07:12:16;;;;;;;26.73;24.00;;;11.00;99.90;;;;;;5024447;28;20035;-84
2024/01/26 07:14:42;;;;;;;26.52;23.70;;;10.90;99.90;;;;;;5036301;28;20041;-84
2024/01/26 07:17:08;;;;;;;26.90;24.30;;;11.00;99.90;;;;;;5045219;28;20428;-85
2024/01/26 07:19:34;;;;;;;28.83;26.33;;;11.00;99.90;;;;;;5021110;28;20117;-84
2024/01/26 07:21:59;;;;;;;25.45;22.95;;;11.00;99.90;;;;;;5021551;28;20369;-84
2024/01/26 07:24:26;;;;;;;29.65;27.05;;;11.00;99.90;;;;;;5042298;28;20052;-85
2024/01/26 07:26:53;;;;;;;24.23;21.92;;;11.00;99.90;;;;;;5033235;28;20499;-86
2024/01/26 07:29:18;;;;;;;24.23;22.05;;;11.00;99.90;;;;;;5028596;28;20106;-86
2024/01/26 07:31:46;;;;;;;25.38;22.88;;;11.00;99.90;;;;;;5053009;28;20489;-83
2024/01/26 07:34:12;;;;;;;23.80;21.35;;;11.00;99.90;;;;;;5026491;28;20037;-83
2024/01/26 07:36:37;;;;;;;24.88;22.48;;;11.00;99.90;;;;;;5051372;28;20435;-84
2024/01/26 07:39:05;;;;;;;25.15;22.85;;;11.00;99.90;;;;;;5017060;28;20249;-83
2024/01/26 07:41:31;;;;;;;25.08;22.77;;;11.00;99.90;;;;;;5029493;28;20075;-85
2024/01/26 07:43:57;;;;;;;24.63;22.13;;;11.00;99.90;;;;;;5025685;28;20051;-84
2024/01/26 07:46:23;;;;;;;22.38;20.30;;;11.00;99.90;;;;;;5037207;28;20041;-84
2024/01/26 07:48:48;;;;;;;21.70;19.75;;;11.00;99.90;;;;;;5044898;28;20124;-84
2024/01/26 07:51:14;;;;;;;24.02;21.80;;;11.10;99.90;;;;;;5040966;28;20066;-85
2024/01/26 07:53:40;;;;;;;23.15;21.05;;;11.10;99.90;;;;;;5057131;28;20514;-85
2024/01/26 07:56:06;;;;;;;22.15;20.13;;;11.10;99.90;;;;;;5035328;28;20397;-82
2024/01/26 07:58:32;;;;;;;21.27;19.40;;;11.10;99.90;;;;;;5044423;28;20032;-84
2024/01/26 08:00:58;;;;;;;22.60;20.70;;;11.20;99.90;;;;;;5051784;28;20553;-82
2024/01/26 08:03:23;;;;;;;21.63;19.85;;;11.10;99.90;;;;;;5028257;28;20045;-81
2024/01/26 08:05:49;;;;;;;20.50;18.70;;;11.10;99.90;;;;;;5045851;28;20489;-82
2024/01/26 08:08:15;;;;;;;23.05;21.05;;;11.20;99.90;;;;;;5050202;28;20036;-82
2024/01/26 08:10:41;;;;;;;20.77;19.08;;;11.20;99.90;;;;;;5029755;28;20045;-82
2024/01/26 08:13:06;;;;;;;22.85;21.00;;;11.20;99.90;;;;;;5069544;28;20032;-82
2024/01/26 08:15:32;;;;;;;18.05;16.67;;;11.10;99.90;;;;;;5067473;28;20120;-83
2024/01/26 08:17:58;;;;;;;19.02;17.65;;;11.10;99.90;;;;;;5032261;28;20112;-83
2024/01/26 08:20:23;;;;;;;16.60;15.40;;;11.10;99.90;;;;;;5058016;28;20085;-84
2024/01/26 08:22:49;;;;;;;17.63;16.33;;;11.20;99.90;;;;;;5038615;28;20049;-82
2024/01/26 08:25:15;;;;;;;16.90;15.60;;;11.20;99.90;;;;;;5035793;28;20070;-81
2024/01/26 08:27:40;;;;;;;20.02;18.50;;;11.10;99.90;;;;;;5067653;28;20078;-83
2024/01/26 08:30:06;;;;;;;66.75;55.53;;;11.10;99.90;;;;;;5033932;28;20037;-84
2024/01/26 08:32:32;;;;;;;17.10;15.73;;;11.10;99.90;;;;;;5028134;28;20048;-83
2024/01/26 08:34:58;;;;;;;18.95;17.42;;;11.10;99.90;;;;;;5016341;28;20037;-83
2024/01/26 08:37:24;;;;;;;30.95;28.83;;;11.00;99.90;;;;;;5047267;28;20465;-83
2024/01/26 08:39:49;;;;;;;19.02;17.23;;;11.10;99.90;;;;;;5033774;28;20382;-81
2024/01/26 08:42:16;;;;;;;19.08;17.27;;;11.00;99.90;;;;;;5052306;28;20388;-81
2024/01/26 08:44:42;;;;;;;22.73;20.75;;;11.10;99.90;;;;;;5033816;28;20052;-82
2024/01/26 08:47:08;;;;;;;32.33;29.35;;;11.00;99.90;;;;;;5030595;28;20041;-80
2024/01/26 08:49:34;;;;;;;18.50;16.60;;;11.10;99.90;;;;;;5039563;28;20048;-81
2024/01/26 08:52:00;;;;;;;21.83;18.38;;;11.00;99.90;;;;;;5052916;28;20469;-82
2024/01/26 08:54:25;;;;;;;22.05;19.80;;;11.10;99.90;;;;;;5052364;28;20041;-80
2024/01/26 08:56:51;;;;;;;24.23;21.98;;;11.10;99.90;;;;;;5035854;28;20048;-81
2024/01/26 08:59:17;;;;;;;19.67;17.60;;;11.10;99.90;;;;;;5032944;28;20041;-81
2024/01/26 09:01:43;;;;;;;20.08;16.20;;;11.00;99.90;;;;;;5051979;28;20040;-80
2024/01/26 09:04:09;;;;;;;21.60;19.45;;;11.00;99.90;;;;;;5032242;28;20378;-81
2024/01/26 09:06:35;;;;;;;32.95;26.92;;;11.00;99.90;;;;;;5069715;28;20464;-81
2024/01/26 09:09:02;;;;;;;48.58;44.22;;;11.10;99.90;;;;;;5030829;28;20040;-81
2024/01/26 09:11:28;;;;;;;23.50;21.55;;;11.10;99.90;;;;;;5041107;28;20040;-81
2024/01/26 09:13:54;;;;;;;21.60;19.77;;;11.10;99.90;;;;;;5049449;28;20036;-81
2024/01/26 09:16:20;;;;;;;27.63;25.83;;;10.90;99.90;;;;;;5051245;28;20428;-81
2024/01/26 09:18:45;;;;;;;13.73;12.32;;;10.60;99.90;;;;;;5044133;28;20040;-80
2024/01/26 09:21:11;;;;;;;15.40;12.30;;;10.30;99.90;;;;;;5043120;28;20048;-81
2024/01/26 09:23:37;;;;;;;13.15;11.88;;;10.10;99.90;;;;;;5034566;28;20456;-82
2024/01/26 09:26:06;;;;;;;13.65;12.32;;;10.00;99.90;;;;;;5037656;28;20273;-81
2024/01/26 09:28:32;;;;;;;13.82;12.48;;;9.80;99.90;;;;;;5033208;28;20119;-79
2024/01/26 09:30:58;;;;;;;12.93;10.93;;;9.70;99.90;;;;;;5028817;28;20427;-82
2024/01/26 09:33:23;;;;;;;15.60;13.18;;;9.70;99.90;;;;;;5045887;28;20045;-81
2024/01/26 09:35:49;;;;;;;14.57;13.18;;;9.60;99.90;;;;;;5066817;28;20049;-80
2024/01/26 09:38:15;;;;;;;16.33;12.85;;;9.60;99.90;;;;;;5051086;28;20508;-81
2024/01/26 09:40:42;;;;;;;98.25;64.75;;;9.50;99.90;;;;;;5033695;28;20489;-80
2024/01/26 09:43:08;;;;;;;15.38;13.50;;;9.40;99.90;;;;;;5027390;28;20036;-81
2024/01/26 09:45:34;;;;;;;17.25;15.35;;;9.40;99.90;;;;;;5030254;28;20054;-80
2024/01/26 09:48:04;;;;;;;15.52;13.00;;;9.40;99.90;;;;;;5049069;28;20037;-81
2024/01/26 09:50:31;;;;;;;19.23;13.45;;;9.30;99.90;;;;;;5067032;28;20051;-80
2024/01/26 09:52:58;;;;;;;22.90;12.77;;;9.30;99.90;;;;;;5046680;28;20154;-81
2024/01/26 09:55:24;;;;;;;22.33;20.25;;;9.30;99.90;;;;;;5062817;28;20485;-82
2024/01/26 09:57:51;;;;;;;18.45;13.85;;;9.20;99.90;;;;;;5065343;28;20040;-80
2024/01/26 10:00:17;;;;;;;19.85;12.48;;;9.10;99.90;;;;;;5068511;28;20041;-82
2024/01/26 10:02:43;;;;;;;26.15;14.90;;;9.10;99.90;;;;;;5047326;28;20037;-81
2024/01/26 10:05:10;;;;;;;16.55;12.10;;;9.10;99.90;;;;;;5034874;28;20083;-80
2024/01/26 10:07:37;;;;;;;17.52;11.68;;;9.00;99.90;;;;;;5051829;28;20045;-81
2024/01/26 10:10:05;;;;;;;24.88;12.13;;;9.00;99.90;;;;;;5051544;28;20127;-81
2024/01/26 10:12:30;;;;;;;18.73;11.38;;;9.00;99.90;;;;;;5050771;28;20048;-81
2024/01/26 10:15:08;;;;;;;17.67;11.38;;;9.00;99.90;;;;;;5030077;28;20041;-81
2024/01/26 10:17:34;;;;;;;17.50;10.98;;;9.00;99.90;;;;;;5045739;28;20046;-80
2024/01/26 10:20:07;;;;;;;19.77;13.63;;;9.00;99.90;;;;;;5045811;28;20523;-80
2024/01/26 10:22:37;;;;;;;19.08;11.82;;;9.00;99.90;;;;;;5027790;28;20115;-80
2024/01/26 10:25:04;;;;;;;14.05;12.52;;;9.00;99.90;;;;;;5063018;28;20044;-83
2024/01/26 10:27:30;;;;;;;14.95;11.40;;;8.90;99.90;;;;;;5050968;28;20040;-81
2024/01/26 10:29:56;;;;;;;21.30;16.05;;;9.00;99.90;;;;;;5068541;28;20064;-82
2024/01/26 10:32:30;;;;;;;16.00;14.35;;;9.00;99.90;;;;;;5029052;28;20095;-82
2024/01/26 10:35:00;;;;;;;16.83;11.20;;;8.90;99.90;;;;;;5029736;28;20043;-83
2024/01/26 10:37:36;;;;;;;17.42;11.13;;;9.00;99.90;;;;;;5046432;28;20128;-82
2024/01/26 10:40:06;;;;;;;14.68;11.90;;;9.10;99.90;;;;;;5050973;28;20425;-81
2024/01/26 10:42:32;;;;;;;20.10;13.10;;;9.10;99.90;;;;;;5046790;28;20461;-84
2024/01/26 10:45:01;;;;;;;17.45;15.73;;;9.10;99.90;;;;;;5050673;28;20087;-82
2024/01/26 10:47:27;;;;;;;23.27;19.30;;;9.10;99.90;;;;;;5048790;28;20143;-82
2024/01/26 10:50:05;;;;;;;21.20;11.57;;;9.10;99.90;;;;;;5050546;28;20048;-83
2024/01/26 10:52:33;;;;;;;15.88;14.25;;;9.10;99.90;;;;;;5050100;28;20087;-82
2024/01/26 10:54:59;;;;;;;71.13;41.33;;;9.10;99.90;;;;;;5033581;28;20036;-81
2024/01/26 10:57:24;;;;;;;17.05;15.27;;;9.10;99.90;;;;;;5032886;28;20123;-80
2024/01/26 10:59:50;;;;;;;23.67;17.05;;;9.10;99.90;;;;;;5044227;28;20148;-81
2024/01/26 11:02:31;;;;;;;17.90;12.68;;;9.10;99.90;;;;;;5044634;28;20162;-82
2024/01/26 11:05:07;;;;;;;32.25;23.92;;;9.00;99.90;;;;;;5043053;28;20051;-81
2024/01/26 11:07:34;;;;;;;20.95;16.85;;;9.00;99.90;;;;;;5030683;28;20591;-81
2024/01/26 11:10:04;;;;;;;24.00;14.18;;;9.10;99.90;;;;;;5027926;28;20036;-82
2024/01/26 11:12:32;;;;;;;21.42;12.98;;;9.10;99.90;;;;;;5043057;28;20493;-82
2024/01/26 11:15:18;;;;;;;15.70;12.57;;;9.10;99.90;;;;;;5039740;28;20036;-82
2024/01/26 11:17:56;;;;;;;16.75;12.43;;;9.10;99.90;;;;;;5044612;28;20522;-82
2024/01/26 11:20:29;;;;;;;15.02;12.43;;;9.20;99.90;;;;;;5049050;28;20119;-82
2024/01/26 11:23:14;;;;;;;16.00;11.30;;;9.20;99.90;;;;;;5027860;28;20036;-82
2024/01/26 11:25:43;;;;;;;;;;;9.20;99.90;;;;;;5029506;28;20497;-82
2024/01/26 11:28:09;;;;;;;17.40;15.88;;;9.20;99.90;;;;;;5066770;28;19920;-81
2024/01/26 11:30:37;;;;;;;21.65;19.35;;;9.20;99.90;;;;;;5048803;28;20048;-81
2024/01/26 11:33:13;;;;;;;18.55;10.75;;;9.20;99.90;;;;;;5027369;28;20036;-81
2024/01/26 11:35:39;;;;;;;21.48;12.02;;;9.10;99.90;;;;;;5044339;28;20037;-82
2024/01/26 11:38:06;;;;;;;18.90;11.90;;;9.10;99.90;;;;;;5043257;28;20071;-82
2024/01/26 11:40:33;;;;;;;26.52;24.63;;;9.00;99.90;;;;;;5049341;28;20229;-81
2024/01/26 11:42:58;;;;;;;17.75;11.68;;;9.00;99.90;;;;;;5061327;28;20056;-81
2024/01/26 11:45:27;;;;;;;16.08;10.98;;;9.10;99.90;;;;;;5031474;28;20040;-81
2024/01/26 11:47:53;;;;;;;17.48;12.20;;;9.10;99.90;;;;;;5059946;28;20037;-82
2024/01/26 11:50:19;;;;;;;15.23;10.65;;;9.10;99.90;;;;;;5032228;28;20040;-81
2024/01/26 11:52:45;;;;;;;19.20;16.38;;;9.00;99.90;;;;;;5061553;28;20036;-81
2024/01/26 11:55:12;;;;;;;18.17;12.90;;;9.00;99.90;;;;;;5026739;28;20036;-81
2024/01/26 11:57:38;;;;;;;16.90;11.02;;;9.00;99.90;;;;;;5041969;28;20040;-81
2024/01/26 12:00:06;;;;;;;15.30;11.23;;;9.00;99.90;;;;;;5042157;28;20045;-81
2024/01/26 12:02:32;;;;;;;16.05;10.73;;;9.00;99.90;;;;;;5042855;28;20037;-81
2024/01/26 12:04:57;;;;;;;19.17;15.13;;;9.00;99.90;;;;;;5029466;28;20029;-82
2024/01/26 12:07:23;;;;;;;17.33;11.73;;;9.00;99.90;;;;;;5027688;28;20040;-81
2024/01/26 12:09:49;;;;;;;24.25;22.15;;;8.90;99.90;;;;;;5065843;28;20040;-82
2024/01/26 12:12:15;;;;;;;14.65;11.02;;;8.90;99.90;;;;;;5026829;28;20500;-80
2024/01/26 12:14:40;;;;;;;22.38;14.85;;;8.90;99.90;;;;;;5041577;28;20515;-82
2024/01/26 12:17:06;;;;;;;16.77;12.95;;;8.90;99.90;;;;;;5032453;28;20052;-81
2024/01/26 12:19:32;;;;;;;22.17;19.92;;;8.90;99.90;;;;;;5024117;28;20528;-81
2024/01/26 12:21:58;;;;;;;20.77;18.55;;;8.90;99.90;;;;;;5025785;28;20040;-81
2024/01/26 12:24:24;;;;;;;17.63;12.50;;;8.80;99.90;;;;;;5046972;28;20481;-81
2024/01/26 12:26:50;;;;;;;109.35;44.95;;;8.80;99.90;;;;;;5049691;28;20044;-80